createdAt,value
2023-01-01T00:04:01.627Z,79.54
2023-01-01T00:09:24.113Z,79.55
2023-01-01T00:14:29.462Z,78.89
2023-01-01T00:19:33.655Z,79.11
2023-01-01T00:24:37.283Z,79.41
2023-01-01T00:29:42.874Z,78.64
2023-01-01T00:34:46.531Z,78.69
2023-01-01T00:39:50.759Z,78.32
2023-01-01T00:44:56.081Z,79.71
2023-01-01T00:50:00.150Z,79.31
2023-01-01T00:55:04.374Z,78.51
2023-01-01T01:00:11.508Z,77.81
2023-01-01T01:05:15.188Z,77.68
2023-01-01T01:10:21.594Z,77.59
2023-01-01T01:15:26.752Z,78.79
2023-01-01T01:20:30.545Z,79.54
2023-01-01T01:25:34.210Z,78.48
2023-01-01T01:30:40.474Z,79.01
2023-01-01T01:35:46.906Z,79.45
2023-01-01T01:40:50.953Z,80.66
2023-01-01T01:45:59.972Z,79.90
2023-01-01T01:51:03.662Z,78.84
2023-01-01T01:56:10.140Z,78.75
2023-01-01T02:01:15.633Z,79.80
2023-01-01T02:06:20.378Z,79.76
2023-01-01T02:11:24.238Z,79.94
2023-01-01T02:16:37.955Z,79.92
2023-01-01T02:21:59.202Z,80.08
2023-01-01T02:27:08.269Z,80.25
2023-01-01T02:32:17.825Z,80.67
2023-01-01T02:37:25.103Z,81.78
2023-01-01T02:42:30.420Z,82.46
2023-01-01T02:47:35.384Z,82.89
2023-01-01T02:53:02.935Z,81.15
2023-01-01T02:58:31.158Z,81.40
2023-01-01T03:03:41.562Z,82.69
2023-01-01T03:08:52.847Z,82.35
2023-01-01T03:14:03.614Z,82.71
2023-01-01T03:19:12.323Z,83.07
2023-01-01T03:24:24.089Z,83.06
2023-01-01T03:29:32.726Z,84.06
2023-01-01T03:34:41.584Z,84.73
2023-01-01T03:39:50.749Z,85.78
2023-01-01T03:45:01.738Z,86.45
2023-01-01T03:50:08.324Z,85.03
2023-01-01T03:55:18.303Z,85.58
2023-01-01T04:00:24.670Z,85.91
2023-01-01T04:05:31.159Z,86.05
2023-01-01T04:10:38.073Z,88.68
2023-01-01T04:15:41.696Z,87.24
2023-01-01T04:20:46.702Z,87.80
2023-01-01T04:25:50.300Z,87.49
2023-01-01T04:35:57.800Z,86.52
2023-01-01T04:41:01.923Z,85.92
2023-01-01T04:46:06.071Z,87.09
2023-01-01T04:51:14.199Z,86.61
2023-01-01T04:56:20.584Z,86.64
2023-01-01T05:01:26.184Z,87.88
2023-01-01T05:06:31.525Z,88.17
2023-01-01T05:11:35.105Z,88.73
2023-01-01T05:16:40.475Z,88.24
2023-01-01T05:21:46.715Z,90.40
2023-01-01T05:26:50.372Z,90.33
2023-01-01T05:31:54.274Z,91.37
2023-01-01T05:36:59.322Z,91.61
2023-01-01T05:42:02.945Z,91.63
2023-01-01T05:47:06.539Z,91.93
2023-01-01T05:52:11.796Z,90.66
2023-01-01T05:57:15.366Z,91.70
2023-01-01T06:02:18.985Z,92.06
2023-01-01T06:07:24.043Z,92.03
2023-01-01T06:12:27.742Z,93.92
2023-01-01T06:17:31.370Z,94.05
2023-01-01T06:22:38.725Z,94.34
2023-01-01T06:27:42.268Z,94.40
2023-01-01T06:32:45.795Z,94.40
2023-01-01T06:37:50.759Z,95.53
2023-01-01T06:42:54.263Z,94.99
2023-01-01T06:47:58.599Z,96.94
2023-01-01T06:53:03.893Z,96.67
2023-01-01T06:58:09.953Z,98.53
2023-01-01T07:03:14.088Z,97.20
2023-01-01T07:08:19.081Z,97.90
2023-01-01T07:13:23.149Z,97.11
2023-01-01T07:18:27.095Z,94.66
2023-01-01T07:23:34.598Z,94.47
2023-01-01T07:28:38.139Z,93.14
2023-01-01T07:33:41.848Z,93.52
2023-01-01T07:38:46.859Z,93.58
2023-01-01T07:43:50.447Z,92.76
2023-01-01T07:48:54.245Z,91.80
2023-01-01T07:54:05.686Z,93.07
2023-01-01T07:59:13.395Z,93.22
2023-01-01T08:04:20.622Z,93.85
2023-01-01T08:09:25.744Z,93.55
2023-01-01T08:14:29.467Z,92.09
2023-01-01T08:19:33.031Z,92.79
2023-01-01T08:24:38.133Z,91.61
2023-01-01T08:29:41.999Z,88.85
2023-01-01T08:34:46.683Z,87.17
2023-01-01T08:39:52.277Z,88.95
2023-01-01T08:44:55.998Z,88.42
2023-01-01T08:49:59.811Z,90.97
2023-01-01T08:55:05.143Z,87.91
2023-01-01T09:00:10.445Z,87.16
2023-01-01T09:05:14.189Z,86.90
2023-01-01T09:10:19.317Z,86.61
2023-01-01T09:15:23.099Z,85.98
2023-01-01T09:20:26.725Z,84.86
2023-01-01T09:25:32.484Z,85.79
2023-01-01T09:30:37.191Z,85.46
2023-01-01T09:35:44.229Z,85.37
2023-01-01T09:40:59.368Z,85.16
2023-01-01T09:46:07.191Z,84.64
2023-01-01T09:51:16.760Z,84.25
2023-01-01T09:56:26.944Z,83.66
2023-01-01T10:01:39.660Z,81.85
2023-01-01T10:06:47.972Z,80.36
2023-01-01T10:11:59.766Z,78.66
2023-01-01T10:17:10.396Z,76.91
2023-01-01T10:22:19.907Z,76.28
2023-01-01T10:27:32.070Z,76.68
2023-01-01T10:32:39.301Z,75.88
2023-01-01T10:37:43.487Z,76.29
2023-01-01T10:42:51.208Z,77.67
2023-01-01T10:48:19.472Z,76.53
2023-01-01T10:53:28.121Z,76.67
2023-01-01T10:58:40.668Z,76.61
2023-01-01T11:03:55.999Z,75.17
2023-01-01T11:09:03.519Z,77.38
2023-01-01T11:14:20.901Z,75.23
2023-01-01T11:19:29.127Z,73.26
2023-01-01T11:24:34.196Z,75.05
2023-01-01T11:29:39.570Z,74.01
2023-01-01T11:34:45.127Z,74.86
2023-01-01T11:39:52.651Z,72.28
2023-01-01T11:44:59.688Z,71.03
2023-01-01T11:50:15.025Z,70.44
2023-01-01T11:55:27.334Z,72.78
2023-01-01T12:00:37.058Z,71.36
2023-01-01T12:05:48.145Z,70.23
2023-01-01T12:10:57.039Z,71.14
2023-01-01T12:16:10.660Z,70.99
2023-01-01T12:21:20.451Z,71.82
2023-01-01T12:26:27.676Z,72.11
2023-01-01T12:31:40.085Z,73.78
2023-01-01T12:36:53.855Z,74.41
2023-01-01T12:42:06.054Z,74.64
2023-01-01T12:47:26.249Z,75.12
2023-01-01T12:52:41.446Z,75.51
2023-01-01T12:57:49.800Z,74.01
2023-01-01T13:03:00.323Z,75.76
2023-01-01T13:08:07.480Z,75.36
2023-01-01T13:13:13.196Z,77.43
2023-01-01T13:18:23.639Z,79.19
2023-01-01T13:23:47.924Z,78.48
2023-01-01T13:29:45.253Z,78.84
2023-01-01T13:35:20.634Z,77.57
2023-01-01T13:40:51.052Z,79.18
2023-01-01T13:46:13.606Z,81.93
2023-01-01T13:57:24.719Z,79.83
2023-01-01T14:02:33.400Z,81.31
2023-01-01T14:07:52.637Z,82.36
2023-01-01T14:13:03.800Z,81.63
2023-01-01T14:18:15.411Z,82.55
2023-01-01T14:23:26.474Z,82.60
2023-01-01T14:28:32.488Z,83.37
2023-01-01T14:33:36.394Z,83.14
2023-01-01T14:38:45.344Z,85.78
2023-01-01T14:43:51.945Z,86.53
2023-01-01T14:49:02.242Z,85.29
2023-01-01T14:54:07.690Z,87.38
2023-01-01T14:59:16.684Z,88.75
2023-01-01T15:04:24.007Z,85.54
2023-01-01T15:09:29.841Z,86.24
2023-01-01T15:14:37.549Z,87.33
2023-01-01T15:19:43.095Z,86.17
2023-01-01T15:24:48.016Z,88.86
2023-01-01T15:29:51.870Z,88.77
2023-01-01T15:34:58.601Z,87.20
2023-01-01T15:40:25.723Z,88.05
2023-01-01T15:45:32.349Z,88.78
2023-01-01T15:50:40.315Z,86.76
2023-01-01T15:55:47.735Z,89.17
2023-01-01T16:00:57.302Z,91.36
2023-01-01T16:06:02.618Z,92.31
2023-01-01T16:11:07.789Z,95.23
2023-01-01T16:16:27.925Z,96.94
2023-01-01T16:21:33.235Z,98.77
2023-01-01T16:26:38.395Z,99.07
2023-01-01T16:31:42.329Z,97.98
2023-01-01T16:36:46.661Z,98.40
2023-01-01T16:41:51.733Z,97.09
2023-01-01T16:46:55.389Z,99.91
2023-01-01T16:51:59.032Z,100.00
2023-01-01T16:57:04.687Z,100.00
2023-01-01T17:02:13.914Z,100.00
2023-01-01T17:07:17.863Z,100.00
2023-01-01T17:12:23.265Z,100.00
2023-01-01T17:17:27.031Z,100.00
2023-01-01T17:22:34.497Z,100.00
2023-01-01T17:27:40.071Z,100.00
2023-01-01T17:32:43.905Z,95.80
2023-01-01T17:37:47.893Z,96.66
2023-01-01T17:42:55.068Z,97.06
2023-01-01T17:47:58.697Z,96.30
2023-01-01T17:53:02.628Z,98.16
2023-01-01T17:58:08.677Z,93.68
2023-01-01T18:03:13.708Z,97.42
2023-01-01T18:08:17.367Z,91.25
2023-01-01T18:13:22.951Z,93.28
2023-01-01T18:18:27.122Z,95.65
2023-01-01T18:23:33.896Z,98.99
2023-01-01T18:28:39.469Z,100.00
2023-01-01T18:33:43.735Z,99.67
2023-01-01T18:38:56.372Z,98.80
2023-01-01T18:44:01.864Z,98.15
2023-01-01T18:49:12.029Z,100.00
2023-01-01T18:54:15.676Z,100.00
2023-01-01T18:59:25.858Z,100.00
2023-01-01T19:04:29.572Z,98.66
2023-01-01T19:09:33.422Z,98.87
2023-01-01T19:14:38.566Z,98.26
2023-01-01T19:19:42.246Z,93.62
2023-01-01T19:24:45.976Z,92.59
2023-01-01T19:29:52.227Z,89.30
2023-01-01T19:34:56.688Z,88.74
2023-01-01T19:40:00.672Z,90.11
2023-01-01T19:45:08.298Z,91.54
2023-01-01T19:50:12.693Z,90.78
2023-01-01T19:55:17.310Z,90.21
2023-01-01T20:00:24.677Z,91.55
2023-01-01T20:05:33.321Z,88.92
2023-01-01T20:10:38.706Z,90.91
2023-01-01T20:15:46.836Z,91.14
2023-01-01T20:21:09.542Z,91.71
2023-01-01T20:26:14.007Z,90.78
2023-01-01T20:31:20.327Z,90.10
2023-01-01T20:36:42.209Z,91.51
2023-01-01T20:41:46.068Z,95.39
2023-01-01T20:46:51.242Z,93.48
2023-01-01T20:51:55.476Z,93.36
2023-01-01T20:56:59.574Z,93.44
2023-01-01T21:02:05.126Z,86.80
2023-01-01T21:07:11.252Z,85.12
2023-01-01T21:12:15.344Z,83.20
2023-01-01T21:17:22.980Z,83.63
2023-01-01T21:22:28.976Z,84.44
2023-01-01T21:27:35.235Z,87.23
2023-01-01T21:32:42.860Z,88.04
2023-01-01T21:37:49.861Z,90.37
2023-01-01T21:42:56.602Z,90.40
2023-01-01T21:48:13.719Z,91.72
2023-01-01T21:53:19.541Z,92.84
2023-01-01T21:58:43.674Z,94.45
2023-01-01T22:03:52.613Z,95.88
2023-01-01T22:08:58.561Z,97.40
2023-01-01T22:14:09.384Z,99.27
2023-01-01T22:19:19.051Z,99.26
2023-01-01T22:24:41.082Z,100.00
2023-01-01T22:29:46.062Z,100.00
2023-01-01T22:34:52.238Z,100.00
2023-01-01T22:39:56.034Z,100.00
2023-01-01T22:45:00.392Z,100.00
2023-01-01T22:50:07.792Z,100.00
2023-01-01T22:55:11.439Z,100.00
2023-01-01T23:00:17.196Z,100.00
2023-01-01T23:05:22.392Z,100.00
2023-01-01T23:10:26.265Z,100.00
2023-01-01T23:15:52.299Z,100.00
2023-01-01T23:21:01.869Z,100.00
2023-01-01T23:26:06.646Z,100.00
2023-01-01T23:31:13.106Z,100.00
2023-01-01T23:36:18.110Z,100.00
2023-01-01T23:41:23.319Z,100.00
2023-01-01T23:46:28.171Z,92.57
2023-01-01T23:51:33.905Z,88.47
2023-01-01T23:56:38.293Z,86.52
